sensor_id;sensor_type;location;lat;lon;timestamp;P1;durP1;ratioP1;P2;durP2;ratioP2
73382;SDS011;61600;48.126;11.542;2023-02-15T00:01:32;18.92;;;8.50;;
73382;SDS011;61600;48.126;11.542;2023-02-15T00:03:59;22.90;;;8.10;;
73382;SDS011;61600;48.126;11.542;2023-02-15T00:06:26;28.38;;;7.90;;
73382;SDS011;61600;48.126;11.542;2023-02-15T00:09:11;28.58;;;8.55;;
73382;SDS011;61600;48.126;11.542;2023-02-15T00:11:38;24.48;;;8.50;;
73382;SDS011;61600;48.126;11.542;2023-02-15T00:14:20;17.27;;;7.75;;
73382;SDS011;61600;48.126;11.542;2023-02-15T00:16:48;17.55;;;7.28;;
73382;SDS011;61600;48.126;11.542;2023-02-15T00:19:16;16.60;;;7.63;;
73382;SDS011;61600;48.126;11.542;2023-02-15T00:21:42;17.90;;;8.30;;
73382;SDS011;61600;48.126;11.542;2023-02-15T00:24:12;19.70;;;7.90;;
73382;SDS011;61600;48.126;11.542;2023-02-15T00:29:05;20.58;;;8.13;;
73382;SDS011;61600;48.126;11.542;2023-02-15T00:31:33;16.10;;;8.80;;
73382;SDS011;61600;48.126;11.542;2023-02-15T00:34:12;23.65;;;8.45;;
73382;SDS011;61600;48.126;11.542;2023-02-15T00:36:41;17.85;;;7.75;;
73382;SDS011;61600;48.126;11.542;2023-02-15T00:39:07;19.95;;;8.23;;
73382;SDS011;61600;48.126;11.542;2023-02-15T00:41:33;30.17;;;9.27;;
73382;SDS011;61600;48.126;11.542;2023-02-15T00:43:59;21.45;;;8.38;;
73382;SDS011;61600;48.126;11.542;2023-02-15T00:46:25;27.50;;;8.45;;
73382;SDS011;61600;48.126;11.542;2023-02-15T00:48:51;21.02;;;8.35;;
73382;SDS011;61600;48.126;11.542;2023-02-15T00:51:17;22.42;;;8.50;;
73382;SDS011;61600;48.126;11.542;2023-02-15T00:53:43;20.63;;;8.35;;
73382;SDS011;61600;48.126;11.542;2023-02-15T00:56:10;16.50;;;7.25;;
73382;SDS011;61600;48.126;11.542;2023-02-15T00:58:36;19.65;;;7.68;;
73382;SDS011;61600;48.126;11.542;2023-02-15T01:01:07;17.95;;;7.65;;
73382;SDS011;61600;48.126;11.542;2023-02-15T01:03:35;18.42;;;7.78;;
73382;SDS011;61600;48.126;11.542;2023-02-15T01:06:01;17.13;;;7.18;;
73382;SDS011;61600;48.126;11.542;2023-02-15T01:08:28;17.60;;;8.05;;
73382;SDS011;61600;48.126;11.542;2023-02-15T01:10:54;15.20;;;7.90;;
73382;SDS011;61600;48.126;11.542;2023-02-15T01:13:20;17.85;;;7.45;;
73382;SDS011;61600;48.126;11.542;2023-02-15T01:15:52;17.55;;;7.55;;
73382;SDS011;61600;48.126;11.542;2023-02-15T01:18:22;15.60;;;7.35;;
73382;SDS011;61600;48.126;11.542;2023-02-15T01:20:47;16.95;;;7.80;;
73382;SDS011;61600;48.126;11.542;2023-02-15T01:23:13;15.98;;;7.32;;
73382;SDS011;61600;48.126;11.542;2023-02-15T01:25:39;18.42;;;7.20;;
73382;SDS011;61600;48.126;11.542;2023-02-15T01:28:05;13.68;;;6.68;;
73382;SDS011;61600;48.126;11.542;2023-02-15T01:30:31;13.20;;;6.68;;
73382;SDS011;61600;48.126;11.542;2023-02-15T01:32:57;15.95;;;6.97;;
73382;SDS011;61600;48.126;11.542;2023-02-15T01:35:23;14.73;;;7.22;;
73382;SDS011;61600;48.126;11.542;2023-02-15T01:37:49;13.23;;;6.25;;
73382;SDS011;61600;48.126;11.542;2023-02-15T01:40:16;21.63;;;7.07;;
73382;SDS011;61600;48.126;11.542;2023-02-15T01:42:43;13.15;;;6.15;;
73382;SDS011;61600;48.126;11.542;2023-02-15T01:47:44;15.10;;;6.65;;
73382;SDS011;61600;48.126;11.542;2023-02-15T01:50:17;13.85;;;6.18;;
73382;SDS011;61600;48.126;11.542;2023-02-15T01:52:52;12.05;;;6.80;;
73382;SDS011;61600;48.126;11.542;2023-02-15T01:55:43;16.00;;;7.20;;
73382;SDS011;61600;48.126;11.542;2023-02-15T01:58:22;14.20;;;6.30;;
73382;SDS011;61600;48.126;11.542;2023-02-15T02:00:52;12.77;;;6.47;;
73382;SDS011;61600;48.126;11.542;2023-02-15T02:03:20;12.10;;;5.50;;
73382;SDS011;61600;48.126;11.542;2023-02-15T02:06:09;10.75;;;5.53;;
73382;SDS011;61600;48.126;11.542;2023-02-15T02:08:35;11.95;;;5.90;;
73382;SDS011;61600;48.126;11.542;2023-02-15T02:11:01;10.30;;;5.38;;
73382;SDS011;61600;48.126;11.542;2023-02-15T02:13:27;12.43;;;5.25;;
73382;SDS011;61600;48.126;11.542;2023-02-15T02:15:57;12.40;;;5.63;;
73382;SDS011;61600;48.126;11.542;2023-02-15T02:27:08;12.80;;;6.18;;
73382;SDS011;61600;48.126;11.542;2023-02-15T02:33:01;12.75;;;5.57;;
73382;SDS011;61600;48.126;11.542;2023-02-15T02:41:51;12.65;;;5.80;;
73382;SDS011;61600;48.126;11.542;2023-02-15T02:46:50;12.88;;;5.72;;
73382;SDS011;61600;48.126;11.542;2023-02-15T02:49:33;11.45;;;5.55;;
73382;SDS011;61600;48.126;11.542;2023-02-15T02:52:02;30.98;;;8.90;;
73382;SDS011;61600;48.126;11.542;2023-02-15T02:54:32;19.52;;;6.25;;
73382;SDS011;61600;48.126;11.542;2023-02-15T02:57:02;13.80;;;6.68;;
73382;SDS011;61600;48.126;11.542;2023-02-15T02:59:33;14.68;;;6.28;;
73382;SDS011;61600;48.126;11.542;2023-02-15T03:02:13;17.58;;;7.03;;
73382;SDS011;61600;48.126;11.542;2023-02-15T03:04:45;10.45;;;5.63;;
73382;SDS011;61600;48.126;11.542;2023-02-15T03:07:24;13.10;;;6.10;;
73382;SDS011;61600;48.126;11.542;2023-02-15T03:09:53;11.45;;;5.57;;
73382;SDS011;61600;48.126;11.542;2023-02-15T03:12:29;14.05;;;5.90;;
73382;SDS011;61600;48.126;11.542;2023-02-15T03:15:05;14.85;;;6.25;;
73382;SDS011;61600;48.126;11.542;2023-02-15T03:17:37;13.50;;;6.13;;
73382;SDS011;61600;48.126;11.542;2023-02-15T03:20:14;11.63;;;5.53;;
73382;SDS011;61600;48.126;11.542;2023-02-15T03:22:49;12.23;;;5.68;;
73382;SDS011;61600;48.126;11.542;2023-02-15T03:25:24;15.82;;;6.45;;
73382;SDS011;61600;48.126;11.542;2023-02-15T03:27:58;12.00;;;5.82;;
73382;SDS011;61600;48.126;11.542;2023-02-15T03:30:28;31.10;;;6.82;;
73382;SDS011;61600;48.126;11.542;2023-02-15T03:35:23;11.40;;;5.90;;
73382;SDS011;61600;48.126;11.542;2023-02-15T03:37:52;11.55;;;5.72;;
73382;SDS011;61600;48.126;11.542;2023-02-15T03:40:29;15.18;;;6.22;;
73382;SDS011;61600;48.126;11.542;2023-02-15T03:43:26;13.32;;;6.50;;
73382;SDS011;61600;48.126;11.542;2023-02-15T03:46:23;13.35;;;5.30;;
73382;SDS011;61600;48.126;11.542;2023-02-15T03:49:03;12.48;;;5.93;;
73382;SDS011;61600;48.126;11.542;2023-02-15T03:51:38;11.40;;;5.53;;
73382;SDS011;61600;48.126;11.542;2023-02-15T03:54:19;21.17;;;6.25;;
73382;SDS011;61600;48.126;11.542;2023-02-15T04:02:40;12.57;;;5.00;;
73382;SDS011;61600;48.126;11.542;2023-02-15T04:05:29;12.50;;;5.60;;
73382;SDS011;61600;48.126;11.542;2023-02-15T04:07:55;13.77;;;5.80;;
73382;SDS011;61600;48.126;11.542;2023-02-15T04:10:21;15.48;;;6.43;;
73382;SDS011;61600;48.126;11.542;2023-02-15T04:13:05;13.00;;;5.65;;
73382;SDS011;61600;48.126;11.542;2023-02-15T04:15:31;12.30;;;5.75;;
73382;SDS011;61600;48.126;11.542;2023-02-15T04:18:15;12.95;;;5.43;;
73382;SDS011;61600;48.126;11.542;2023-02-15T04:20:45;12.63;;;5.78;;
73382;SDS011;61600;48.126;11.542;2023-02-15T04:23:30;15.95;;;6.15;;
73382;SDS011;61600;48.126;11.542;2023-02-15T04:26:16;14.65;;;6.50;;
73382;SDS011;61600;48.126;11.542;2023-02-15T04:28:42;12.23;;;5.30;;
73382;SDS011;61600;48.126;11.542;2023-02-15T04:31:07;13.88;;;5.88;;
73382;SDS011;61600;48.126;11.542;2023-02-15T04:33:33;14.57;;;6.22;;
73382;SDS011;61600;48.126;11.542;2023-02-15T04:36:01;14.95;;;5.90;;
73382;SDS011;61600;48.126;11.542;2023-02-15T04:38:28;12.10;;;5.65;;
73382;SDS011;61600;48.126;11.542;2023-02-15T04:40:54;14.20;;;6.65;;
73382;SDS011;61600;48.126;11.542;2023-02-15T04:43:19;13.20;;;5.95;;
73382;SDS011;61600;48.126;11.542;2023-02-15T04:45:49;18.10;;;5.78;;
73382;SDS011;61600;48.126;11.542;2023-02-15T04:48:15;11.77;;;6.20;;
73382;SDS011;61600;48.126;11.542;2023-02-15T04:50:42;16.05;;;6.55;;
73382;SDS011;61600;48.126;11.542;2023-02-15T04:53:09;11.25;;;5.18;;
73382;SDS011;61600;48.126;11.542;2023-02-15T04:55:36;12.05;;;5.53;;
73382;SDS011;61600;48.126;11.542;2023-02-15T04:58:02;12.73;;;5.32;;
73382;SDS011;61600;48.126;11.542;2023-02-15T05:00:27;12.85;;;5.82;;
73382;SDS011;61600;48.126;11.542;2023-02-15T05:02:53;16.23;;;5.90;;
73382;SDS011;61600;48.126;11.542;2023-02-15T05:05:19;13.63;;;6.18;;
73382;SDS011;61600;48.126;11.542;2023-02-15T05:07:44;14.23;;;6.03;;
73382;SDS011;61600;48.126;11.542;2023-02-15T05:10:10;10.70;;;5.53;;
73382;SDS011;61600;48.126;11.542;2023-02-15T05:12:36;10.98;;;5.78;;
73382;SDS011;61600;48.126;11.542;2023-02-15T05:15:02;18.08;;;6.55;;
73382;SDS011;61600;48.126;11.542;2023-02-15T05:17:28;11.95;;;5.80;;
73382;SDS011;61600;48.126;11.542;2023-02-15T05:19:53;10.80;;;5.68;;
73382;SDS011;61600;48.126;11.542;2023-02-15T05:22:19;14.18;;;6.22;;
73382;SDS011;61600;48.126;11.542;2023-02-15T05:24:45;14.10;;;6.63;;
73382;SDS011;61600;48.126;11.542;2023-02-15T05:27:29;17.60;;;6.72;;
73382;SDS011;61600;48.126;11.542;2023-02-15T05:30:13;13.02;;;6.55;;
73382;SDS011;61600;48.126;11.542;2023-02-15T05:32:39;17.73;;;7.47;;
73382;SDS011;61600;48.126;11.542;2023-02-15T05:35:06;14.55;;;6.68;;
73382;SDS011;61600;48.126;11.542;2023-02-15T05:37:32;14.13;;;6.32;;
73382;SDS011;61600;48.126;11.542;2023-02-15T05:39:58;14.05;;;6.10;;
73382;SDS011;61600;48.126;11.542;2023-02-15T05:42:24;12.48;;;6.03;;
73382;SDS011;61600;48.126;11.542;2023-02-15T05:44:50;14.25;;;6.75;;
73382;SDS011;61600;48.126;11.542;2023-02-15T05:47:16;17.48;;;6.50;;
73382;SDS011;61600;48.126;11.542;2023-02-15T05:49:42;14.63;;;6.05;;
73382;SDS011;61600;48.126;11.542;2023-02-15T05:52:07;14.25;;;6.95;;
73382;SDS011;61600;48.126;11.542;2023-02-15T05:54:33;11.38;;;5.78;;
73382;SDS011;61600;48.126;11.542;2023-02-15T05:56:59;16.08;;;6.60;;
73382;SDS011;61600;48.126;11.542;2023-02-15T05:59:25;12.85;;;6.88;;
73382;SDS011;61600;48.126;11.542;2023-02-15T06:01:50;13.68;;;6.45;;
73382;SDS011;61600;48.126;11.542;2023-02-15T06:04:16;12.35;;;5.60;;
73382;SDS011;61600;48.126;11.542;2023-02-15T06:06:42;15.30;;;6.75;;
73382;SDS011;61600;48.126;11.542;2023-02-15T06:09:08;15.50;;;7.05;;
73382;SDS011;61600;48.126;11.542;2023-02-15T06:11:38;22.92;;;7.43;;
73382;SDS011;61600;48.126;11.542;2023-02-15T06:14:03;15.50;;;6.38;;
73382;SDS011;61600;48.126;11.542;2023-02-15T06:16:29;18.00;;;7.93;;
73382;SDS011;61600;48.126;11.542;2023-02-15T06:18:55;18.35;;;7.05;;
73382;SDS011;61600;48.126;11.542;2023-02-15T06:21:21;15.27;;;7.22;;
73382;SDS011;61600;48.126;11.542;2023-02-15T06:23:50;20.42;;;8.27;;
73382;SDS011;61600;48.126;11.542;2023-02-15T06:26:21;23.80;;;8.45;;
73382;SDS011;61600;48.126;11.542;2023-02-15T06:29:16;19.77;;;7.95;;
73382;SDS011;61600;48.126;11.542;2023-02-15T06:31:42;16.40;;;8.23;;
73382;SDS011;61600;48.126;11.542;2023-02-15T06:34:08;15.45;;;7.47;;
73382;SDS011;61600;48.126;11.542;2023-02-15T06:36:33;18.50;;;7.60;;
73382;SDS011;61600;48.126;11.542;2023-02-15T06:39:02;16.05;;;7.38;;
73382;SDS011;61600;48.126;11.542;2023-02-15T06:41:29;14.80;;;6.50;;
73382;SDS011;61600;48.126;11.542;2023-02-15T06:43:55;14.80;;;6.18;;
73382;SDS011;61600;48.126;11.542;2023-02-15T06:46:21;19.00;;;8.07;;
73382;SDS011;61600;48.126;11.542;2023-02-15T06:48:47;18.65;;;7.50;;
73382;SDS011;61600;48.126;11.542;2023-02-15T06:51:13;17.83;;;7.57;;
73382;SDS011;61600;48.126;11.542;2023-02-15T06:53:39;14.02;;;7.22;;
73382;SDS011;61600;48.126;11.542;2023-02-15T06:56:07;14.75;;;7.50;;
73382;SDS011;61600;48.126;11.542;2023-02-15T06:58:41;17.23;;;8.02;;
73382;SDS011;61600;48.126;11.542;2023-02-15T07:01:07;19.75;;;6.80;;
73382;SDS011;61600;48.126;11.542;2023-02-15T07:03:34;15.52;;;7.28;;
73382;SDS011;61600;48.126;11.542;2023-02-15T07:06:01;13.82;;;6.95;;
73382;SDS011;61600;48.126;11.542;2023-02-15T07:08:31;15.88;;;7.93;;
73382;SDS011;61600;48.126;11.542;2023-02-15T07:10:56;16.40;;;7.63;;
73382;SDS011;61600;48.126;11.542;2023-02-15T07:13:45;19.40;;;7.97;;
73382;SDS011;61600;48.126;11.542;2023-02-15T07:16:14;19.67;;;7.90;;
73382;SDS011;61600;48.126;11.542;2023-02-15T07:18:40;19.38;;;7.75;;
73382;SDS011;61600;48.126;11.542;2023-02-15T07:21:06;18.52;;;7.80;;
73382;SDS011;61600;48.126;11.542;2023-02-15T07:23:36;16.95;;;7.78;;
73382;SDS011;61600;48.126;11.542;2023-02-15T07:26:03;16.08;;;7.55;;
73382;SDS011;61600;48.126;11.542;2023-02-15T07:28:30;18.40;;;7.82;;
73382;SDS011;61600;48.126;11.542;2023-02-15T07:30:57;16.83;;;7.72;;
73382;SDS011;61600;48.126;11.542;2023-02-15T07:33:23;15.65;;;6.95;;
73382;SDS011;61600;48.126;11.542;2023-02-15T07:35:53;17.38;;;7.85;;
73382;SDS011;61600;48.126;11.542;2023-02-15T07:38:20;15.15;;;7.28;;
73382;SDS011;61600;48.126;11.542;2023-02-15T07:40:47;16.95;;;7.75;;
73382;SDS011;61600;48.126;11.542;2023-02-15T07:43:13;17.08;;;7.65;;
73382;SDS011;61600;48.126;11.542;2023-02-15T07:45:39;15.45;;;7.93;;
73382;SDS011;61600;48.126;11.542;2023-02-15T07:48:06;16.00;;;7.20;;
73382;SDS011;61600;48.126;11.542;2023-02-15T07:50:33;17.55;;;7.65;;
73382;SDS011;61600;48.126;11.542;2023-02-15T07:53:00;13.95;;;7.00;;
73382;SDS011;61600;48.126;11.542;2023-02-15T07:55:27;16.95;;;7.80;;
73382;SDS011;61600;48.126;11.542;2023-02-15T07:57:52;18.35;;;8.50;;
73382;SDS011;61600;48.126;11.542;2023-02-15T08:00:19;21.38;;;7.82;;
73382;SDS011;61600;48.126;11.542;2023-02-15T08:02:50;16.58;;;7.93;;
73382;SDS011;61600;48.126;11.542;2023-02-15T08:05:38;15.63;;;7.55;;
73382;SDS011;61600;48.126;11.542;2023-02-15T08:08:06;15.57;;;7.70;;
73382;SDS011;61600;48.126;11.542;2023-02-15T08:10:33;13.32;;;7.43;;
73382;SDS011;61600;48.126;11.542;2023-02-15T08:13:18;18.88;;;8.30;;
73382;SDS011;61600;48.126;11.542;2023-02-15T08:15:48;18.17;;;7.45;;
73382;SDS011;61600;48.126;11.542;2023-02-15T08:18:14;17.50;;;8.20;;
73382;SDS011;61600;48.126;11.542;2023-02-15T08:20:40;18.30;;;7.82;;
73382;SDS011;61600;48.126;11.542;2023-02-15T08:23:06;21.25;;;8.73;;
73382;SDS011;61600;48.126;11.542;2023-02-15T08:25:32;17.33;;;7.18;;
73382;SDS011;61600;48.126;11.542;2023-02-15T08:27:58;18.73;;;8.13;;
73382;SDS011;61600;48.126;11.542;2023-02-15T08:30:24;18.77;;;8.27;;
73382;SDS011;61600;48.126;11.542;2023-02-15T08:32:49;17.15;;;7.68;;
73382;SDS011;61600;48.126;11.542;2023-02-15T08:35:15;16.10;;;7.57;;
73382;SDS011;61600;48.126;11.542;2023-02-15T08:37:41;16.92;;;8.10;;
73382;SDS011;61600;48.126;11.542;2023-02-15T08:40:07;18.98;;;7.78;;
73382;SDS011;61600;48.126;11.542;2023-02-15T08:42:33;16.55;;;9.02;;
73382;SDS011;61600;48.126;11.542;2023-02-15T08:44:59;17.33;;;8.00;;
73382;SDS011;61600;48.126;11.542;2023-02-15T08:47:25;19.88;;;7.78;;
73382;SDS011;61600;48.126;11.542;2023-02-15T08:49:51;13.18;;;6.95;;
73382;SDS011;61600;48.126;11.542;2023-02-15T08:52:17;18.20;;;8.52;;
73382;SDS011;61600;48.126;11.542;2023-02-15T08:54:43;16.75;;;8.10;;
73382;SDS011;61600;48.126;11.542;2023-02-15T08:57:11;16.08;;;7.32;;
73382;SDS011;61600;48.126;11.542;2023-02-15T08:59:37;18.63;;;8.90;;
73382;SDS011;61600;48.126;11.542;2023-02-15T09:02:03;16.33;;;7.88;;
73382;SDS011;61600;48.126;11.542;2023-02-15T09:04:29;15.88;;;8.27;;
73382;SDS011;61600;48.126;11.542;2023-02-15T09:06:54;20.67;;;7.97;;
73382;SDS011;61600;48.126;11.542;2023-02-15T09:09:21;20.10;;;8.60;;
73382;SDS011;61600;48.126;11.542;2023-02-15T09:11:48;22.42;;;8.50;;
73382;SDS011;61600;48.126;11.542;2023-02-15T09:14:19;18.27;;;8.48;;
73382;SDS011;61600;48.126;11.542;2023-02-15T09:16:47;17.08;;;8.25;;
73382;SDS011;61600;48.126;11.542;2023-02-15T09:19:17;18.52;;;7.43;;
73382;SDS011;61600;48.126;11.542;2023-02-15T09:21:44;21.88;;;8.45;;
73382;SDS011;61600;48.126;11.542;2023-02-15T09:24:11;21.17;;;8.40;;
73382;SDS011;61600;48.126;11.542;2023-02-15T09:26:40;16.13;;;8.02;;
73382;SDS011;61600;48.126;11.542;2023-02-15T09:29:07;20.02;;;8.52;;
73382;SDS011;61600;48.126;11.542;2023-02-15T09:31:37;15.35;;;8.25;;
73382;SDS011;61600;48.126;11.542;2023-02-15T09:34:09;21.52;;;10.00;;
73382;SDS011;61600;48.126;11.542;2023-02-15T09:36:37;20.33;;;8.50;;
73382;SDS011;61600;48.126;11.542;2023-02-15T09:39:09;31.13;;;9.20;;
73382;SDS011;61600;48.126;11.542;2023-02-15T09:47:22;19.00;;;8.82;;
73382;SDS011;61600;48.126;11.542;2023-02-15T09:52:53;20.33;;;8.77;;
73382;SDS011;61600;48.126;11.542;2023-02-15T10:06:11;17.83;;;8.63;;
73382;SDS011;61600;48.126;11.542;2023-02-15T10:09:03;20.67;;;8.60;;
73382;SDS011;61600;48.126;11.542;2023-02-15T10:25:50;22.73;;;9.27;;
73382;SDS011;61600;48.126;11.542;2023-02-15T10:28:26;23.20;;;8.27;;
73382;SDS011;61600;48.126;11.542;2023-02-15T10:31:14;26.17;;;8.70;;
73382;SDS011;61600;48.126;11.542;2023-02-15T10:33:49;16.05;;;8.43;;
73382;SDS011;61600;48.126;11.542;2023-02-15T10:42:15;15.80;;;8.95;;
73382;SDS011;61600;48.126;11.542;2023-02-15T10:56:20;20.52;;;9.95;;
73382;SDS011;61600;48.126;11.542;2023-02-15T11:01:35;19.83;;;9.27;;
73382;SDS011;61600;48.126;11.542;2023-02-15T11:07:05;23.17;;;10.15;;
73382;SDS011;61600;48.126;11.542;2023-02-15T11:09:38;20.10;;;9.30;;
73382;SDS011;61600;48.126;11.542;2023-02-15T11:12:13;23.70;;;9.55;;
73382;SDS011;61600;48.126;11.542;2023-02-15T11:14:46;19.58;;;9.32;;
73382;SDS011;61600;48.126;11.542;2023-02-15T11:17:21;17.13;;;9.55;;
73382;SDS011;61600;48.126;11.542;2023-02-15T11:19:54;20.33;;;9.98;;
73382;SDS011;61600;48.126;11.542;2023-02-15T11:22:28;18.83;;;9.65;;
73382;SDS011;61600;48.126;11.542;2023-02-15T11:24:57;18.90;;;10.45;;
73382;SDS011;61600;48.126;11.542;2023-02-15T11:27:29;25.77;;;10.38;;
73382;SDS011;61600;48.126;11.542;2023-02-15T11:30:10;25.55;;;10.60;;
73382;SDS011;61600;48.126;11.542;2023-02-15T11:32:40;22.67;;;10.38;;
73382;SDS011;61600;48.126;11.542;2023-02-15T11:37:37;22.92;;;10.30;;
73382;SDS011;61600;48.126;11.542;2023-02-15T11:42:52;22.02;;;10.20;;
73382;SDS011;61600;48.126;11.542;2023-02-15T11:45:29;20.45;;;10.52;;
73382;SDS011;61600;48.126;11.542;2023-02-15T11:48:14;21.70;;;11.02;;
73382;SDS011;61600;48.126;11.542;2023-02-15T11:50:41;19.98;;;11.38;;
73382;SDS011;61600;48.126;11.542;2023-02-15T11:53:12;27.27;;;11.88;;
73382;SDS011;61600;48.126;11.542;2023-02-15T11:55:42;25.83;;;11.40;;
73382;SDS011;61600;48.126;11.542;2023-02-15T11:58:15;23.40;;;11.85;;
73382;SDS011;61600;48.126;11.542;2023-02-15T12:00:42;23.55;;;11.70;;
73382;SDS011;61600;48.126;11.542;2023-02-15T12:03:14;25.95;;;11.75;;
73382;SDS011;61600;48.126;11.542;2023-02-15T12:05:44;24.58;;;12.63;;
73382;SDS011;61600;48.126;11.542;2023-02-15T12:08:17;53.15;;;23.85;;
73382;SDS011;61600;48.126;11.542;2023-02-15T12:13:30;18.83;;;10.80;;
73382;SDS011;61600;48.126;11.542;2023-02-15T12:15:57;27.13;;;12.55;;
73382;SDS011;61600;48.126;11.542;2023-02-15T12:18:36;28.20;;;12.15;;
73382;SDS011;61600;48.126;11.542;2023-02-15T12:21:09;19.85;;;11.38;;
73382;SDS011;61600;48.126;11.542;2023-02-15T12:23:51;28.10;;;12.05;;
73382;SDS011;61600;48.126;11.542;2023-02-15T12:26:26;23.92;;;11.38;;
73382;SDS011;61600;48.126;11.542;2023-02-15T12:28:55;36.95;;;11.85;;
73382;SDS011;61600;48.126;11.542;2023-02-15T12:31:52;26.05;;;12.07;;
73382;SDS011;61600;48.126;11.542;2023-02-15T12:34:39;24.20;;;11.82;;
73382;SDS011;61600;48.126;11.542;2023-02-15T12:37:11;21.95;;;11.10;;
73382;SDS011;61600;48.126;11.542;2023-02-15T12:39:53;26.30;;;12.30;;
73382;SDS011;61600;48.126;11.542;2023-02-15T12:42:23;25.92;;;13.00;;
73382;SDS011;61600;48.126;11.542;2023-02-15T12:47:44;22.25;;;11.63;;
73382;SDS011;61600;48.126;11.542;2023-02-15T12:50:23;20.25;;;10.40;;
73382;SDS011;61600;48.126;11.542;2023-02-15T12:53:05;24.55;;;10.80;;
73382;SDS011;61600;48.126;11.542;2023-02-15T12:56:02;29.92;;;11.57;;
73382;SDS011;61600;48.126;11.542;2023-02-15T12:58:32;25.85;;;12.07;;
73382;SDS011;61600;48.126;11.542;2023-02-15T13:01:18;23.63;;;11.00;;
73382;SDS011;61600;48.126;11.542;2023-02-15T13:04:03;23.65;;;12.20;;
73382;SDS011;61600;48.126;11.542;2023-02-15T13:06:32;23.98;;;10.95;;
73382;SDS011;61600;48.126;11.542;2023-02-15T13:09:25;22.67;;;10.57;;
73382;SDS011;61600;48.126;11.542;2023-02-15T13:12:08;21.95;;;10.90;;
73382;SDS011;61600;48.126;11.542;2023-02-15T13:14:48;24.77;;;12.52;;
73382;SDS011;61600;48.126;11.542;2023-02-15T13:17:17;26.40;;;12.07;;
73382;SDS011;61600;48.126;11.542;2023-02-15T13:19:51;21.95;;;11.07;;
73382;SDS011;61600;48.126;11.542;2023-02-15T13:22:42;19.35;;;9.93;;
73382;SDS011;61600;48.126;11.542;2023-02-15T13:25:17;19.25;;;10.45;;
73382;SDS011;61600;48.126;11.542;2023-02-15T13:27:55;18.75;;;11.07;;
73382;SDS011;61600;48.126;11.542;2023-02-15T13:33:03;19.30;;;10.40;;
73382;SDS011;61600;48.126;11.542;2023-02-15T13:35:37;21.42;;;10.80;;
73382;SDS011;61600;48.126;11.542;2023-02-15T13:38:16;22.55;;;10.18;;
73382;SDS011;61600;48.126;11.542;2023-02-15T13:41:09;19.17;;;10.48;;
73382;SDS011;61600;48.126;11.542;2023-02-15T13:43:59;20.42;;;10.35;;
73382;SDS011;61600;48.126;11.542;2023-02-15T13:52:23;18.42;;;9.43;;
73382;SDS011;61600;48.126;11.542;2023-02-15T13:58:01;18.67;;;9.85;;
73382;SDS011;61600;48.126;11.542;2023-02-15T14:14:10;16.70;;;8.77;;
73382;SDS011;61600;48.126;11.542;2023-02-15T14:16:58;21.33;;;10.50;;
73382;SDS011;61600;48.126;11.542;2023-02-15T14:19:52;20.30;;;9.93;;
73382;SDS011;61600;48.126;11.542;2023-02-15T14:22:43;17.05;;;9.35;;
73382;SDS011;61600;48.126;11.542;2023-02-15T14:25:20;24.50;;;9.70;;
73382;SDS011;61600;48.126;11.542;2023-02-15T14:27:58;16.48;;;9.93;;
73382;SDS011;61600;48.126;11.542;2023-02-15T14:30:29;21.05;;;10.05;;
73382;SDS011;61600;48.126;11.542;2023-02-15T14:35:59;21.50;;;9.32;;
73382;SDS011;61600;48.126;11.542;2023-02-15T14:41:14;16.58;;;9.45;;
73382;SDS011;61600;48.126;11.542;2023-02-15T14:49:40;18.80;;;8.93;;
73382;SDS011;61600;48.126;11.542;2023-02-15T14:52:07;23.10;;;9.52;;
73382;SDS011;61600;48.126;11.542;2023-02-15T15:02:17;18.40;;;8.82;;
73382;SDS011;61600;48.126;11.542;2023-02-15T15:05:00;16.77;;;8.60;;
73382;SDS011;61600;48.126;11.542;2023-02-15T15:12:46;18.60;;;9.13;;
73382;SDS011;61600;48.126;11.542;2023-02-15T15:15:13;18.27;;;8.55;;
73382;SDS011;61600;48.126;11.542;2023-02-15T15:17:59;17.52;;;9.30;;
73382;SDS011;61600;48.126;11.542;2023-02-15T15:25:47;22.63;;;8.85;;
73382;SDS011;61600;48.126;11.542;2023-02-15T15:31:02;19.75;;;9.82;;
73382;SDS011;61600;48.126;11.542;2023-02-15T15:37:01;23.27;;;9.50;;
73382;SDS011;61600;48.126;11.542;2023-02-15T15:43:19;23.08;;;10.73;;
73382;SDS011;61600;48.126;11.542;2023-02-15T15:48:38;21.45;;;11.32;;
73382;SDS011;61600;48.126;11.542;2023-02-15T15:51:18;20.77;;;11.20;;
73382;SDS011;61600;48.126;11.542;2023-02-15T15:53:48;21.27;;;10.52;;
73382;SDS011;61600;48.126;11.542;2023-02-15T15:56:19;21.02;;;9.80;;
73382;SDS011;61600;48.126;11.542;2023-02-15T15:58:55;21.05;;;9.75;;
73382;SDS011;61600;48.126;11.542;2023-02-15T16:01:46;19.23;;;9.82;;
73382;SDS011;61600;48.126;11.542;2023-02-15T16:04:12;21.83;;;10.93;;
73382;SDS011;61600;48.126;11.542;2023-02-15T16:06:46;28.77;;;11.07;;
73382;SDS011;61600;48.126;11.542;2023-02-15T16:09:16;20.45;;;10.88;;
73382;SDS011;61600;48.126;11.542;2023-02-15T16:11:47;18.25;;;9.60;;
73382;SDS011;61600;48.126;11.542;2023-02-15T16:16:52;28.15;;;11.02;;
73382;SDS011;61600;48.126;11.542;2023-02-15T16:19:42;22.70;;;10.65;;
73382;SDS011;61600;48.126;11.542;2023-02-15T16:22:21;24.83;;;11.05;;
73382;SDS011;61600;48.126;11.542;2023-02-15T16:27:41;20.27;;;10.45;;
73382;SDS011;61600;48.126;11.542;2023-02-15T16:32:46;21.92;;;10.68;;
73382;SDS011;61600;48.126;11.542;2023-02-15T16:35:16;28.95;;;12.15;;
73382;SDS011;61600;48.126;11.542;2023-02-15T16:37:45;21.85;;;10.43;;
73382;SDS011;61600;48.126;11.542;2023-02-15T16:40:25;21.05;;;10.52;;
73382;SDS011;61600;48.126;11.542;2023-02-15T16:42:59;30.35;;;10.50;;
73382;SDS011;61600;48.126;11.542;2023-02-15T16:45:28;24.38;;;10.65;;
73382;SDS011;61600;48.126;11.542;2023-02-15T16:47:57;22.05;;;11.10;;
73382;SDS011;61600;48.126;11.542;2023-02-15T16:50:36;20.77;;;10.35;;
73382;SDS011;61600;48.126;11.542;2023-02-15T16:53:04;23.75;;;10.63;;
73382;SDS011;61600;48.126;11.542;2023-02-15T16:55:39;24.73;;;12.07;;
73382;SDS011;61600;48.126;11.542;2023-02-15T16:58:07;21.73;;;10.77;;
73382;SDS011;61600;48.126;11.542;2023-02-15T17:00:43;23.50;;;11.15;;
73382;SDS011;61600;48.126;11.542;2023-02-15T17:05:45;29.58;;;12.32;;
73382;SDS011;61600;48.126;11.542;2023-02-15T17:08:17;21.52;;;10.68;;
73382;SDS011;61600;48.126;11.542;2023-02-15T17:16:33;29.45;;;12.43;;
73382;SDS011;61600;48.126;11.542;2023-02-15T17:19:14;23.88;;;11.23;;
73382;SDS011;61600;48.126;11.542;2023-02-15T17:21:46;24.83;;;11.45;;
73382;SDS011;61600;48.126;11.542;2023-02-15T17:24:24;23.27;;;12.07;;
73382;SDS011;61600;48.126;11.542;2023-02-15T17:26:57;24.65;;;12.13;;
73382;SDS011;61600;48.126;11.542;2023-02-15T17:32:02;26.83;;;11.98;;
73382;SDS011;61600;48.126;11.542;2023-02-15T17:34:44;27.50;;;11.68;;
73382;SDS011;61600;48.126;11.542;2023-02-15T17:37:13;24.25;;;11.25;;
73382;SDS011;61600;48.126;11.542;2023-02-15T17:39:48;25.13;;;11.05;;
73382;SDS011;61600;48.126;11.542;2023-02-15T17:42:14;22.40;;;10.07;;
73382;SDS011;61600;48.126;11.542;2023-02-15T17:44:40;22.83;;;10.77;;
73382;SDS011;61600;48.126;11.542;2023-02-15T17:47:06;22.98;;;10.88;;
73382;SDS011;61600;48.126;11.542;2023-02-15T17:49:32;23.90;;;11.40;;
73382;SDS011;61600;48.126;11.542;2023-02-15T17:52:02;21.13;;;10.40;;